Time;durP1;ratioP1;P1;durP2;ratioP2;P2;SDS_P1;SDS_P2;PMS_P1;PMS_P2;Temp;Humidity;BMP_temperature;BMP_pressure;BME280_temperature;BME280_humidity;BME280_pressure;Samples;Min_cycle;Max_cycle;Signal;HPM_P1;HPM_P2
2021/04/04 00:01:44;;;;;;;12.40;4.68;;;;;;;9.36;61.95;101022.97;4998553;28;20034;-63
2021/04/04 00:04:20;;;;;;;15.50;5.43;;;;;;;9.35;61.75;101023.78;4999179;28;20064;-63
2021/04/04 00:06:53;;;;;;;16.98;4.88;;;;;;;9.35;61.75;101017.72;5015725;28;20324;-63
2021/04/04 00:09:31;;;;;;;11.23;5.30;;;;;;;9.35;61.91;101026.38;4997862;28;20136;-63
2021/04/04 00:12:02;;;;;;;12.00;4.82;;;;;;;9.35;61.92;101022.91;4982364;28;20034;-63
2021/04/04 00:14:36;;;;;;;;;;;;;;;9.31;61.69;101014.16;4983075;28;20129;-63
2021/04/04 00:17:10;;;;;;;8.80;4.63;;;;;;;9.30;61.95;101009.81;4981319;28;19914;-63
2021/04/04 00:19:46;;;;;;;9.88;5.10;;;;;;;9.29;61.97;101013.22;4982462;28;20034;-63
2021/04/04 00:22:17;;;;;;;12.68;4.68;;;;;;;9.29;61.87;101008.03;4982170;28;20076;-63
2021/04/04 00:24:53;;;;;;;10.80;4.45;;;;;;;9.29;61.75;101002.88;4997673;28;20120;-63
2021/04/04 00:27:25;;;;;;;9.80;4.15;;;;;;;9.28;61.82;101007.16;4997999;28;20501;-63
2021/04/04 00:30:30;;;;;;;10.93;4.68;;;;;;;9.28;61.89;101007.16;5015229;28;20038;-63
2021/04/04 00:33:09;;;;;;;11.73;4.78;;;;;;;9.28;62.18;101006.28;5004022;28;20046;-63
2021/04/04 00:35:44;;;;;;;11.65;4.22;;;;;;;9.28;62.11;101001.09;5015427;28;20485;-63
2021/04/04 00:38:15;;;;;;;10.95;4.50;;;;;;;9.28;61.70;101001.09;4981864;28;20412;-63
2021/04/04 00:40:49;;;;;;;10.82;4.55;;;;;;;9.27;61.97;100995.06;4998344;28;20452;-63
2021/04/04 00:43:29;;;;;;;15.77;5.43;;;;;;;9.27;61.94;101002.81;4980896;28;20046;-63
2021/04/04 00:46:11;;;;;;;13.77;4.50;;;;;;;9.27;62.17;100994.16;4981723;28;20038;-63
2021/04/04 00:48:47;;;;;;;13.05;4.32;;;;;;;9.25;61.67;100988.09;4997378;28;20034;-62
2021/04/04 00:51:12;;;;;;;10.23;4.38;;;;;;;9.26;61.91;100995.00;4997227;28;20054;-63
2021/04/04 00:53:40;;;;;;;12.35;5.18;;;;;;;9.24;62.13;100997.53;5015463;28;20037;-63
2021/04/04 00:56:16;;;;;;;12.65;4.25;;;;;;;9.24;62.20;101000.13;4997991;28;20042;-63
2021/04/04 00:58:47;;;;;;;12.02;4.32;;;;;;;9.24;62.04;101007.88;4997426;28;20129;-63
2021/04/04 01:01:18;;;;;;;11.02;4.97;;;;;;;9.24;62.00;100994.06;5014378;28;20046;-63
2021/04/04 01:03:54;;;;;;;18.95;4.93;;;;;;;9.23;61.91;100994.91;4993680;28;20050;-63
2021/04/04 01:06:28;;;;;;;14.40;4.88;;;;;;;9.22;62.16;100994.00;4978055;28;20042;-63
2021/04/04 01:09:05;;;;;;;10.73;4.75;;;;;;;9.21;62.05;100991.38;4994116;28;20368;-63
2021/04/04 01:12:00;;;;;;;11.82;4.22;;;;;;;9.19;62.03;100987.84;4994304;28;20062;-63
2021/04/04 01:14:37;;;;;;;12.95;5.25;;;;;;;9.19;61.74;100990.44;4994271;28;20053;-63
2021/04/04 01:17:11;;;;;;;13.05;4.97;;;;;;;9.19;61.92;100995.59;4977989;28;20038;-63
2021/04/04 01:20:04;;;;;;;12.05;4.78;;;;;;;9.18;61.93;100980.91;4995169;28;20034;-63
2021/04/04 01:23:00;;;;;;;13.40;4.68;;;;;;;9.14;61.95;100985.09;4993169;28;20092;-63
2021/04/04 01:25:38;;;;;;;17.70;7.50;;;;;;;9.15;62.08;100984.28;4995323;28;20049;-63
2021/04/04 01:28:10;;;;;;;9.95;4.88;;;;;;;9.15;62.09;100989.44;4977387;28;20059;-63
2021/04/04 01:30:40;;;;;;;13.45;4.93;;;;;;;9.14;62.18;100990.25;4993207;28;20138;-63
2021/04/04 01:33:12;;;;;;;14.43;5.15;;;;;;;9.13;62.08;100984.19;4994968;28;20042;-63
2021/04/04 01:35:49;;;;;;;14.80;4.53;;;;;;;9.12;62.06;100985.00;4994827;28;20129;-63
2021/04/04 01:38:18;;;;;;;18.20;6.20;;;;;;;9.13;62.13;100983.31;4994835;28;20034;-63
2021/04/04 01:41:00;;;;;;;11.07;5.22;;;;;;;9.11;62.26;100980.66;4976991;28;20508;-63
2021/04/04 01:43:32;;;;;;;11.27;5.03;;;;;;;9.12;62.16;100985.00;4994894;28;20081;-63
2021/04/04 01:46:04;;;;;;;13.93;5.82;;;;;;;9.11;62.09;100988.41;4994236;28;20481;-63
2021/04/04 01:48:41;;;;;;;15.35;5.43;;;;;;;9.12;62.18;100982.44;4993052;28;20034;-63
2021/04/04 01:51:18;;;;;;;10.57;4.40;;;;;;;9.11;61.90;100979.81;4994487;28;20474;-63
2021/04/04 01:53:53;;;;;;;11.70;5.22;;;;;;;9.10;62.10;100973.75;4993714;28;20057;-63
2021/04/04 01:56:27;;;;;;;11.70;4.97;;;;;;;9.10;62.05;100984.09;4994391;28;20129;-63
2021/04/04 01:59:02;;;;;;;11.95;4.35;;;;;;;9.10;62.18;100976.34;4994428;28;20042;-63
2021/04/04 02:01:37;;;;;;;10.05;4.60;;;;;;;9.10;62.15;100976.34;4977682;28;20039;-63
2021/04/04 02:04:08;;;;;;;10.10;4.75;;;;;;;9.10;62.15;100972.88;4995772;28;20037;-63
2021/04/04 02:06:40;;;;;;;14.23;5.22;;;;;;;9.08;61.91;100972.81;4980028;28;20108;-63
2021/04/04 02:09:17;;;;;;;13.07;6.28;;;;;;;9.08;61.98;100971.91;5014063;28;20037;-63
2021/04/04 02:11:52;;;;;;;13.15;4.72;;;;;;;9.08;62.07;100967.66;5013946;28;20050;-63
2021/04/04 02:14:25;;;;;;;17.20;5.03;;;;;;;9.08;62.05;100982.25;5013545;28;20425;-63
2021/04/04 02:17:03;;;;;;;13.65;4.50;;;;;;;9.07;62.11;100976.22;4997126;28;20038;-63
2021/04/04 02:19:38;;;;;;;12.40;5.53;;;;;;;9.06;62.07;100968.41;4996500;28;20146;-63
2021/04/04 02:22:06;;;;;;;12.27;4.95;;;;;;;9.07;62.31;100967.56;5014103;28;20496;-63
2021/04/04 02:24:39;;;;;;;16.45;5.13;;;;;;;9.05;62.12;100972.69;4980179;28;20034;-63
2021/04/04 02:27:17;;;;;;;12.25;5.13;;;;;;;9.05;61.95;100966.63;4996260;28;20053;-63
2021/04/04 02:29:45;;;;;;;11.18;4.85;;;;;;;9.05;62.06;100969.22;4979803;28;20036;-63
2021/04/04 02:32:19;;;;;;;11.18;4.65;;;;;;;9.04;62.41;100963.19;4996540;28;20045;-63
2021/04/04 02:34:59;;;;;;;14.30;5.72;;;;;;;9.02;62.53;100967.41;4995775;28;20524;-63
2021/04/04 02:37:32;;;;;;;11.18;5.35;;;;;;;9.02;62.18;100964.81;5013329;28;20042;-63
2021/04/04 02:40:10;;;;;;;16.77;5.97;;;;;;;9.02;62.15;100962.25;4980694;28;20034;-63
2021/04/04 02:42:43;;;;;;;11.35;5.30;;;;;;;9.02;61.92;100964.81;5000257;28;20034;-63
2021/04/04 02:45:20;;;;;;;13.35;5.00;;;;;;;9.01;61.93;100957.88;5017112;28;20563;-63
2021/04/04 02:48:01;;;;;;;8.68;4.93;;;;;;;9.01;61.92;100957.88;4983811;28;20042;-63
2021/04/04 02:50:33;;;;;;;16.48;5.80;;;;;;;9.01;62.19;100955.31;4999755;28;20038;-63
2021/04/04 02:53:08;;;;;;;20.63;5.68;;;;;;;9.01;62.21;100960.47;5016974;28;20042;-63
2021/04/04 02:55:46;;;;;;;11.10;5.40;;;;;;;8.99;62.31;100950.09;4999893;28;20425;-63
2021/04/04 02:58:24;;;;;;;11.70;4.82;;;;;;;8.98;61.98;100948.31;4983390;28;20045;-63
2021/04/04 03:00:58;;;;;;;16.92;5.65;;;;;;;8.98;61.88;100948.31;5017699;28;20041;-63
2021/04/04 03:03:36;;;;;;;11.57;4.88;;;;;;;8.97;62.12;100945.66;5017030;28;20050;-63
2021/04/04 03:06:12;;;;;;;13.10;4.82;;;;;;;8.98;62.18;100937.09;4982899;28;20052;-63
2021/04/04 03:08:52;;;;;;;15.63;5.97;;;;;;;8.98;62.18;100943.16;5016864;28;20037;-63
2021/04/04 03:11:27;;;;;;;12.55;5.75;;;;;;;8.98;61.85;100944.84;4983644;28;20131;-63
2021/04/04 03:13:56;;;;;;;10.48;5.07;;;;;;;8.97;62.12;100945.66;4999716;28;20465;-63
2021/04/04 03:16:32;;;;;;;10.90;5.00;;;;;;;8.96;61.95;100941.31;4983332;28;20119;-63
2021/04/04 03:19:04;;;;;;;11.23;5.10;;;;;;;8.96;62.13;100947.38;4982537;28;20087;-63
2021/04/04 03:21:34;;;;;;;13.05;5.45;;;;;;;8.96;62.26;100938.72;5016760;28;20037;-63
2021/04/04 03:24:10;;;;;;;8.23;4.60;;;;;;;8.96;62.38;100951.66;4983230;28;20061;-63
2021/04/04 03:26:42;;;;;;;9.73;4.05;;;;;;;8.95;62.02;100944.75;4999171;28;20512;-63
2021/04/04 03:29:15;;;;;;;13.20;4.93;;;;;;;8.95;62.33;100944.75;4999145;28;20038;-63
2021/04/04 03:31:46;;;;;;;10.88;5.55;;;;;;;8.94;62.29;100941.28;4982745;28;20034;-63
2021/04/04 03:34:19;;;;;;;14.48;4.93;;;;;;;8.94;62.50;100937.81;4982570;28;20100;-63
2021/04/04 03:36:54;;;;;;;12.77;4.07;;;;;;;8.92;62.23;100927.41;5016458;28;20064;-63
2021/04/04 03:39:25;;;;;;;14.43;5.03;;;;;;;8.94;62.15;100935.22;4982938;28;20416;-63
2021/04/04 03:41:56;;;;;;;14.32;4.85;;;;;;;8.94;62.38;100935.22;4998965;28;20034;-63
2021/04/04 03:44:32;;;;;;;10.07;4.18;;;;;;;8.93;62.31;100936.06;4982610;28;20037;-63
2021/04/04 03:47:06;;;;;;;16.23;5.45;;;;;;;8.92;62.14;100927.41;5016374;28;20092;-63
2021/04/04 03:49:50;;;;;;;;;;;;;;;8.90;62.23;100929.03;5017018;28;20034;-63
2021/04/04 03:52:23;;;;;;;13.47;4.57;;;;;;;8.89;62.20;100924.69;4981721;28;20289;-63
2021/04/04 03:54:52;;;;;;;12.40;4.97;;;;;;;8.89;62.58;100922.09;4998350;28;20065;-63
2021/04/04 03:57:24;;;;;;;14.13;4.78;;;;;;;8.90;62.60;100926.47;4982195;28;20050;-63
2021/04/04 03:59:56;;;;;;;17.27;5.13;;;;;;;8.90;62.34;100933.34;5016144;28;20045;-63
2021/04/04 04:02:32;;;;;;;12.38;5.22;;;;;;;8.89;62.30;100918.66;4998923;28;20052;-63
2021/04/04 04:05:09;;;;;;;9.57;4.53;;;;;;;8.88;62.59;100922.06;4982156;28;20034;-63
2021/04/04 04:07:42;;;;;;;13.25;4.68;;;;;;;8.89;62.38;100918.66;5015644;28;20034;-64
2021/04/04 04:10:20;;;;;;;10.77;5.47;;;;;;;8.87;62.27;100908.28;4982546;28;20086;-63
2021/04/04 04:12:59;;;;;;;9.45;5.38;;;;;;;8.89;62.33;100909.19;4998017;28;20511;-63
2021/04/04 04:15:35;;;;;;;16.83;5.38;;;;;;;8.88;62.45;100901.38;5015768;28;20038;-63
2021/04/04 04:18:10;;;;;;;9.80;4.88;;;;;;;8.88;62.19;100906.56;4998572;28;20042;-63
2021/04/04 04:20:47;;;;;;;14.82;5.25;;;;;;;8.87;62.28;100903.09;5015876;28;20044;-63
2021/04/04 04:25:49;;;;;;;14.18;5.38;;;;;;;8.86;62.24;100905.63;5080027;27;1612064;-64
2021/04/04 04:28:29;;;;;;;14.13;4.95;;;;;;;8.85;62.28;100915.09;5113588;28;20119;-62
2021/04/04 04:31:02;;;;;;;12.93;4.93;;;;;;;8.85;62.39;100904.75;5113818;28;20031;-62
2021/04/04 04:33:40;;;;;;;14.82;4.80;;;;;;;8.84;62.23;100898.69;5113146;28;20035;-62
2021/04/04 04:36:15;;;;;;;10.38;4.90;;;;;;;8.84;62.37;100895.22;5131852;28;20479;-63
2021/04/04 04:38:50;;;;;;;12.00;5.28;;;;;;;8.83;62.21;100898.63;5113376;28;20039;-61
2021/04/04 04:41:26;;;;;;;16.90;5.07;;;;;;;8.83;62.56;100891.75;5131230;28;20051;-64
2021/04/04 04:44:18;;;;;;;16.38;5.82;;;;;;;8.82;62.19;100889.97;5113385;28;20440;-62
2021/04/04 04:46:47;;;;;;;12.27;4.80;;;;;;;8.84;62.57;100885.75;5131421;28;20036;-63
2021/04/04 04:49:21;;;;;;;14.45;5.78;;;;;;;8.81;62.60;100888.22;5095784;28;20028;-63
2021/04/04 04:51:53;;;;;;;12.27;5.57;;;;;;;8.82;62.55;100881.38;5096564;28;20057;-63
2021/04/04 04:54:28;;;;;;;10.02;5.30;;;;;;;8.82;62.75;100891.72;5131622;28;20031;-64
2021/04/04 04:57:03;;;;;;;12.38;4.53;;;;;;;8.82;62.76;100891.72;5096012;28;20028;-64
2021/04/04 04:59:40;;;;;;;16.52;5.07;;;;;;;8.81;62.51;100885.63;5131224;28;20046;-64
2021/04/04 05:02:11;;;;;;;16.42;5.40;;;;;;;8.80;62.57;100885.59;5131995;28;20035;-63
2021/04/04 05:04:45;;;;;;;12.63;5.55;;;;;;;8.79;62.54;100887.31;5131172;28;20032;-64
2021/04/04 05:07:22;;;;;;;13.23;5.03;;;;;;;8.80;62.52;100889.03;5095760;28;20061;-64
2021/04/04 05:09:59;;;;;;;12.70;5.20;;;;;;;8.81;62.39;100893.38;5131119;28;20043;-62
2021/04/04 05:12:34;;;;;;;10.50;4.55;;;;;;;8.80;62.53;100891.63;5095641;28;20032;-61
2021/04/04 05:15:05;;;;;;;15.05;6.35;;;;;;;8.81;62.59;100895.13;5131108;28;20051;-62
2021/04/04 05:17:39;;;;;;;12.32;4.97;;;;;;;8.80;62.51;100893.34;5131231;28;20031;-61
2021/04/04 05:20:11;;;;;;;10.27;4.05;;;;;;;8.79;62.50;100896.75;5095818;28;20031;-61
2021/04/04 05:22:42;;;;;;;15.40;4.82;;;;;;;8.79;62.33;100904.50;5112589;28;20036;-61
2021/04/04 05:25:19;;;;;;;15.07;4.97;;;;;;;8.79;62.39;100901.94;5095305;28;20066;-61
2021/04/04 05:27:50;;;;;;;10.15;4.82;;;;;;;8.78;62.46;100906.22;5095094;28;20031;-61
2021/04/04 05:30:21;;;;;;;12.20;4.70;;;;;;;8.79;62.35;100905.41;5130847;28;20023;-62
2021/04/04 05:32:53;;;;;;;13.32;5.07;;;;;;;8.77;62.37;100909.63;5095257;28;20038;-62
2021/04/04 05:35:27;;;;;;;10.70;4.82;;;;;;;8.77;62.51;100907.06;5090842;28;20106;-62
2021/04/04 05:38:01;;;;;;;9.60;4.80;;;;;;;8.77;62.73;100913.91;5098710;28;20474;-62
2021/04/04 05:40:33;;;;;;;13.63;5.38;;;;;;;8.76;62.60;100914.72;5082132;28;20042;-64
2021/04/04 05:43:11;;;;;;;15.68;5.13;;;;;;;8.74;62.64;100912.09;5098617;28;20046;-64
2021/04/04 05:45:55;;;;;;;11.27;5.15;;;;;;;8.74;62.30;100914.69;5116649;28;20110;-63
2021/04/04 05:48:56;;;;;;;13.00;5.00;;;;;;;8.73;62.49;100912.91;5117160;28;20035;-63
2021/04/04 05:51:40;;;;;;;11.25;4.35;;;;;;;8.74;62.51;100911.19;5098866;28;20078;-64
2021/04/04 05:54:28;;;;;;;12.88;5.28;;;;;;;8.72;62.51;100916.31;5098113;28;20035;-63
2021/04/04 05:56:59;;;;;;;12.07;4.80;;;;;;;8.72;62.63;100907.72;5098542;28;20118;-64
2021/04/04 05:59:40;;;;;;;17.40;4.80;;;;;;;8.71;62.60;100911.97;5081351;28;20040;-63
2021/04/04 06:02:37;;;;;;;12.30;5.15;;;;;;;8.72;62.71;100915.47;5081363;28;20028;-63
2021/04/04 06:05:13;;;;;;;13.60;5.22;;;;;;;8.72;62.63;100910.28;5098504;28;20040;-64
2021/04/04 06:07:54;;;;;;;10.43;4.75;;;;;;;8.71;62.39;100914.56;5081385;28;20031;-64
2021/04/04 06:10:47;;;;;;;14.27;5.13;;;;;;;8.70;62.61;100912.81;5098239;28;20039;-64
2021/04/04 06:13:48;;;;;;;15.15;5.30;;;;;;;8.71;62.54;100913.69;5116611;28;20114;-64
2021/04/04 06:16:26;;;;;;;18.90;6.13;;;;;;;8.70;62.61;100922.28;5098091;28;20040;-64
2021/04/04 06:19:03;;;;;;;13.63;5.65;;;;;;;8.70;62.77;100909.34;5080882;28;20032;-64
2021/04/04 06:21:43;;;;;;;11.20;4.68;;;;;;;8.68;62.58;100910.16;5081065;28;20440;-64
2021/04/04 06:24:26;;;;;;;10.32;4.60;;;;;;;8.68;62.78;100901.53;5097855;28;20414;-62
2021/04/04 06:27:13;;;;;;;12.95;5.10;;;;;;;8.66;62.42;100903.16;5116131;28;20181;-61
2021/04/04 06:31:08;;;;;;;10.95;4.82;;;;;;;8.66;62.53;100913.50;5080665;28;20043;-64
2021/04/04 06:33:19;;;;;;;11.70;5.72;;;;;;;8.65;62.79;100912.63;5101441;28;20048;-64
2021/04/04 06:36:01;;;;;;;10.00;5.10;;;;;;;8.65;62.89;100903.97;5097557;28;20371;-63
2021/04/04 06:39:40;;;;;;;12.98;4.75;;;;;;;8.64;62.93;100910.88;5123429;27;20193;-64
2021/04/04 06:42:41;;;;;;;16.88;6.03;;;;;;;8.64;62.82;100902.25;5106785;28;20039;-63
2021/04/04 06:45:31;;;;;;;9.63;4.05;;;;;;;8.63;62.96;100916.84;5090893;28;20127;-62
2021/04/04 06:48:55;;;;;;;11.40;4.80;;;;;;;8.62;62.74;100912.50;5091157;28;20063;-63
2021/04/04 06:51:42;;;;;;;10.27;5.13;;;;;;;8.62;62.59;100914.22;5031664;28;20511;-64
2021/04/04 06:54:53;;;;;;;18.50;5.65;;;;;;;8.62;62.78;100916.81;5087590;28;20434;-63
2021/04/04 06:57:49;;;;;;;11.73;4.50;;;;;;;8.60;62.61;100915.88;5089155;28;20121;-63
2021/04/04 07:00:22;;;;;;;14.90;5.55;;;;;;;8.59;62.84;100908.94;5105644;28;20081;-62
2021/04/04 07:02:56;;;;;;;10.52;4.80;;;;;;;8.58;62.76;100910.63;5109276;28;20533;-63
2021/04/04 07:05:28;;;;;;;10.57;4.30;;;;;;;8.59;62.94;100914.09;5109660;28;20032;-61
2021/04/04 07:08:06;;;;;;;9.27;4.70;;;;;;;8.60;62.70;100915.88;5126799;28;20387;-61
2021/04/04 07:11:01;;;;;;;12.45;5.28;;;;;;;8.57;62.61;100921.78;5109484;28;20038;-62
2021/04/04 07:13:52;;;;;;;7.45;4.90;;;;;;;8.57;62.81;100926.09;5109008;28;20077;-62
2021/04/04 07:16:33;;;;;;;13.48;4.57;;;;;;;8.57;62.65;100926.09;5107351;28;20046;-61
2021/04/04 07:19:21;;;;;;;13.25;5.90;;;;;;;8.56;62.73;100921.75;5092154;28;20031;-61
2021/04/04 07:22:15;;;;;;;11.23;4.85;;;;;;;8.55;62.79;100917.38;5092442;28;20040;-62
2021/04/04 07:25:08;;;;;;;9.80;5.18;;;;;;;8.53;62.69;100915.63;5126825;27;20028;-62
2021/04/04 07:27:52;;;;;;;8.27;5.00;;;;;;;8.54;62.78;100908.78;5109415;28;20476;-62
2021/04/04 07:30:35;;;;;;;9.07;4.95;;;;;;;8.53;62.55;100910.47;5110340;28;20081;-62
2021/04/04 07:33:28;;;;;;;16.40;6.53;;;;;;;8.53;62.99;100910.47;5109549;28;20043;-62
2021/04/04 07:36:18;;;;;;;10.60;5.80;;;;;;;8.52;62.73;100908.69;5110569;28;20059;-62
2021/04/04 07:39:05;;;;;;;13.07;5.43;;;;;;;8.52;62.62;100900.94;5108685;28;20125;-63
2021/04/04 07:42:08;;;;;;;11.82;5.75;;;;;;;8.53;62.71;100904.44;5092014;28;20517;-64
2021/04/04 07:45:10;;;;;;;11.07;5.03;;;;;;;8.53;62.84;100904.44;5108918;28;20372;-63
2021/04/04 07:48:06;;;;;;;12.90;5.32;;;;;;;8.52;62.77;100906.09;5092335;28;20130;-64
2021/04/04 07:50:48;;;;;;;11.88;5.22;;;;;;;8.51;62.98;100906.94;5095852;28;20028;-64
2021/04/04 07:53:25;;;;;;;11.95;5.20;;;;;;;8.52;62.81;100910.41;5095215;28;20047;-64
2021/04/04 07:56:04;;;;;;;11.38;5.40;;;;;;;8.51;62.96;100900.91;5078464;28;20039;-63
2021/04/04 07:58:49;;;;;;;13.57;6.05;;;;;;;8.51;62.80;100899.19;5096589;28;20035;-64
2021/04/04 08:01:36;;;;;;;16.90;5.30;;;;;;;8.51;62.73;100906.06;5094940;28;20032;-64
2021/04/04 08:04:26;;;;;;;9.45;4.78;;;;;;;8.52;62.79;100907.81;5077895;28;20063;-64
2021/04/04 08:06:57;;;;;;;10.93;5.55;;;;;;;8.52;62.94;100910.41;5078328;28;20024;-64
2021/04/04 08:09:34;;;;;;;13.25;4.80;;;;;;;8.50;63.05;100910.34;5078025;28;20048;-63
2021/04/04 08:12:46;;;;;;;13.00;5.38;;;;;;;8.50;63.07;100909.47;5077858;28;20487;-64
2021/04/04 08:15:54;;;;;;;9.65;5.60;;;;;;;8.49;62.83;100907.69;5104973;27;20082;-63
2021/04/04 08:18:28;;;;;;;8.30;5.18;;;;;;;8.49;62.88;100906.00;5094646;28;20078;-64
2021/04/04 08:21:07;;;;;;;12.43;5.13;;;;;;;8.48;63.00;100901.66;5077763;28;20040;-64
2021/04/04 08:23:59;;;;;;;10.10;5.65;;;;;;;8.48;62.90;100900.78;5094904;28;20067;-64
2021/04/04 08:26:44;;;;;;;10.70;5.43;;;;;;;8.48;62.88;100898.19;5094181;28;20032;-64
2021/04/04 08:29:40;;;;;;;9.70;5.30;;;;;;;8.48;62.90;100896.50;5096316;28;20036;-62
2021/04/04 08:32:21;;;;;;;10.13;5.22;;;;;;;8.48;63.05;100901.66;5094847;28;20570;-64
2021/04/04 08:35:06;;;;;;;10.52;5.45;;;;;;;8.49;62.79;100902.53;5094413;28;20036;-64
2021/04/04 08:37:58;;;;;;;7.13;4.53;;;;;;;8.48;63.04;100906.84;5076988;28;20515;-64
2021/04/04 08:40:41;;;;;;;10.00;5.25;;;;;;;8.48;63.24;100901.66;5078051;28;20404;-64
2021/04/04 08:43:17;;;;;;;11.82;5.38;;;;;;;8.49;63.12;100902.53;5095371;28;20040;-64
2021/04/04 08:46:03;;;;;;;13.90;5.35;;;;;;;8.48;63.27;100900.78;5094197;28;20123;-64
2021/04/04 08:48:37;;;;;;;11.13;5.20;;;;;;;8.48;63.10;100901.66;5077795;28;20042;-64
2021/04/04 08:51:16;;;;;;;14.68;4.80;;;;;;;8.46;63.17;100903.28;5094918;28;20028;-63
2021/04/04 08:53:53;;;;;;;9.05;4.60;;;;;;;8.46;63.08;100898.13;5094742;28;20394;-62
2021/04/04 08:56:29;;;;;;;7.80;4.70;;;;;;;8.48;63.22;100905.94;5095182;28;20114;-62
2021/04/04 08:59:07;;;;;;;15.75;5.97;;;;;;;8.46;62.69;100898.13;5094008;28;20035;-62
2021/04/04 09:01:46;;;;;;;15.48;5.72;;;;;;;8.46;63.31;100903.28;5092637;28;20040;-63
2021/04/04 09:04:15;;;;;;;8.38;3.97;;;;;;;8.47;63.00;100907.63;5076703;28;20536;-64
2021/04/04 09:06:49;;;;;;;9.98;5.05;;;;;;;8.45;62.87;100896.34;5093580;28;20429;-64
2021/04/04 09:09:31;;;;;;;13.40;5.55;;;;;;;8.46;62.98;100898.13;5077101;28;20052;-64
2021/04/04 09:12:02;;;;;;;9.57;5.82;;;;;;;8.45;63.24;100901.50;5076792;28;20461;-64
2021/04/04 09:14:49;;;;;;;8.77;4.93;;;;;;;8.46;63.05;100902.38;5076704;28;20036;-64
2021/04/04 09:17:24;;;;;;;11.57;4.90;;;;;;;8.46;63.16;100907.53;5076913;28;20435;-63
2021/04/04 09:20:02;;;;;;;7.88;4.88;;;;;;;8.43;63.19;100900.56;5093845;28;20071;-64
2021/04/04 09:22:38;;;;;;;14.75;5.25;;;;;;;8.43;63.17;100903.16;5093700;28;20040;-64
2021/04/04 09:25:14;;;;;;;13.05;5.13;;;;;;;8.42;63.10;100903.97;5094441;28;20085;-64
2021/04/04 09:27:51;;;;;;;8.90;4.68;;;;;;;8.41;62.96;100904.78;5076931;28;20036;-64
2021/04/04 09:30:33;;;;;;;7.15;4.75;;;;;;;8.42;63.15;100901.38;5076555;28;20506;-63
2021/04/04 09:33:26;;;;;;;9.80;4.90;;;;;;;8.43;63.20;100905.75;5093472;28;20040;-64
2021/04/04 09:36:02;;;;;;;10.57;5.65;;;;;;;8.41;63.05;100902.22;5093933;28;20042;-64
2021/04/04 09:38:38;;;;;;;9.15;4.90;;;;;;;8.43;63.10;100898.00;5094599;28;20083;-64
2021/04/04 09:41:10;;;;;;;9.10;5.20;;;;;;;8.40;62.90;100887.53;5093256;28;20543;-64
2021/04/04 09:43:58;;;;;;;13.40;5.00;;;;;;;8.40;62.91;100890.13;5093258;28;20032;-64
2021/04/04 09:46:30;;;;;;;8.48;4.40;;;;;;;8.42;63.13;100892.75;5094284;28;20059;-63
2021/04/04 09:49:03;;;;;;;10.23;4.80;;;;;;;8.41;62.94;100889.28;5094513;28;20106;-63
2021/04/04 09:51:48;;;;;;;11.38;4.60;;;;;;;8.41;63.10;100885.84;5076390;28;20487;-64
2021/04/04 09:54:22;;;;;;;;;;;;;;;8.41;63.12;100883.25;5076428;28;20118;-64
2021/04/04 09:57:01;;;;;;;12.38;4.80;;;;;;;8.40;63.26;100879.78;5093303;28;19912;-64
2021/04/04 09:59:37;;;;;;;6.97;4.78;;;;;;;8.40;63.15;100886.66;5076231;28;20057;-64
2021/04/04 10:02:12;;;;;;;12.93;6.00;;;;;;;8.40;63.10;100876.34;5076845;28;20039;-63
2021/04/04 10:04:49;;;;;;;7.93;4.53;;;;;;;8.40;63.23;100873.75;5094144;28;20047;-64
2021/04/04 10:07:31;;;;;;;9.70;4.57;;;;;;;8.40;63.07;100876.34;5094486;28;20039;-64
2021/04/04 10:10:08;;;;;;;10.57;4.50;;;;;;;8.38;63.04;100874.56;5075267;28;20043;-63
2021/04/04 10:12:59;;;;;;;18.13;4.97;;;;;;;8.36;63.34;100867.56;5092307;28;20024;-64
2021/04/04 10:15:38;;;;;;;10.88;4.90;;;;;;;8.38;63.38;100868.50;5092807;28;20040;-63
2021/04/04 10:18:10;;;;;;;7.60;4.43;;;;;;;8.39;63.01;100870.28;5093085;28;20036;-64
2021/04/04 10:20:54;;;;;;;8.25;4.68;;;;;;;8.40;62.99;100855.66;5093961;28;20048;-63
2021/04/04 10:23:29;;;;;;;11.77;4.45;;;;;;;8.40;63.33;100858.25;5092715;28;20074;-64
2021/04/04 10:26:00;;;;;;;10.00;4.32;;;;;;;8.40;63.06;100856.53;5109297;28;20040;-64
2021/04/04 10:29:04;;;;;;;7.95;5.00;;;;;;;8.41;63.00;100857.44;5092367;28;20042;-63
2021/04/04 10:31:49;;;;;;;9.88;5.55;;;;;;;8.40;63.41;100856.53;5089970;28;20051;-62
2021/04/04 10:34:14;;;;;;;10.45;4.68;;;;;;;8.37;62.97;100867.63;5075440;28;20388;-64
2021/04/04 10:36:59;;;;;;;11.13;5.03;;;;;;;8.37;62.97;100862.47;5092444;28;20130;-62
2021/04/04 10:39:25;;;;;;;7.72;4.45;;;;;;;8.38;63.18;100859.06;5093618;28;20036;-62
2021/04/04 10:42:11;;;;;;;11.48;4.95;;;;;;;8.40;63.31;100859.13;5091901;28;20043;-62
2021/04/04 10:44:42;;;;;;;8.70;4.70;;;;;;;8.38;63.03;100856.50;5092992;28;20233;-62
2021/04/04 10:47:23;;;;;;;10.30;5.38;;;;;;;8.39;63.36;100852.19;5092456;28;20506;-62
2021/04/04 10:49:58;;;;;;;6.75;4.63;;;;;;;8.38;63.03;100847.84;5075826;28;20056;-62
2021/04/04 10:52:28;;;;;;;8.60;4.65;;;;;;;8.37;63.15;100836.66;5092109;28;20090;-62
2021/04/04 10:55:02;;;;;;;11.23;4.90;;;;;;;8.39;62.98;100831.53;5093221;28;20115;-62
2021/04/04 10:57:37;;;;;;;8.90;4.78;;;;;;;8.38;63.10;100840.09;5093578;28;20074;-62
2021/04/04 11:00:11;;;;;;;9.25;4.45;;;;;;;8.37;63.16;100839.22;5093073;28;20036;-63
2021/04/04 11:02:46;;;;;;;8.75;4.90;;;;;;;8.38;63.39;100824.59;5093517;28;20035;-62
2021/04/04 11:05:18;;;;;;;12.32;5.25;;;;;;;8.37;63.13;100815.97;5109183;28;20036;-62
2021/04/04 11:07:50;;;;;;;9.13;4.80;;;;;;;8.40;63.20;100820.38;5093248;28;20032;-62
2021/04/04 11:10:24;;;;;;;7.05;4.53;;;;;;;8.40;63.35;100814.34;5092397;28;20032;-62
2021/04/04 11:13:02;;;;;;;10.70;5.10;;;;;;;8.39;63.26;100818.59;5075511;28;20044;-62
2021/04/04 11:15:39;;;;;;;11.38;5.15;;;;;;;8.38;63.07;100810.00;5093409;28;20032;-62
2021/04/04 11:18:33;;;;;;;9.18;4.45;;;;;;;8.38;63.49;100812.56;5091605;28;20043;-62
2021/04/04 11:21:27;;;;;;;12.15;5.82;;;;;;;8.37;63.19;100802.16;5091263;28;20047;-62
2021/04/04 11:23:53;;;;;;;8.57;5.18;;;;;;;8.34;62.96;100791.72;5084364;28;20450;-62
2021/04/04 11:26:29;;;;;;;8.75;6.03;;;;;;;8.35;63.25;100789.22;5078716;28;20608;-62
2021/04/04 11:29:19;;;;;;;12.55;6.03;;;;;;;8.32;63.07;100781.34;5079180;28;20487;-63
2021/04/04 11:32:09;;;;;;;10.63;5.43;;;;;;;8.33;62.65;100777.94;5095626;28;20479;-62
2021/04/04 11:34:40;;;;;;;15.15;6.60;;;;;;;8.32;63.22;100780.47;5096288;28;20399;-62
2021/04/04 11:37:12;;;;;;;15.18;5.55;;;;;;;8.33;63.16;100772.78;5112094;28;20491;-62
2021/04/04 11:40:17;;;;;;;13.63;6.30;;;;;;;8.33;63.31;100764.16;5078890;28;20046;-62
2021/04/04 11:42:45;;;;;;;11.13;5.90;;;;;;;8.34;63.19;100765.88;5078248;28;20047;-62
2021/04/04 11:45:35;;;;;;;15.50;7.32;;;;;;;8.34;62.95;100763.31;5078206;28;20032;-62
2021/04/04 11:48:32;;;;;;;13.68;6.07;;;;;;;8.29;62.92;100762.28;5078856;28;20051;-62
2021/04/04 11:51:13;;;;;;;12.65;6.57;;;;;;;8.29;63.09;100770.03;5095309;28;20078;-62
2021/04/04 11:53:45;;;;;;;15.80;6.65;;;;;;;8.28;63.04;100765.69;5095257;28;20123;-62
2021/04/04 11:56:43;;;;;;;13.02;6.50;;;;;;;8.25;63.09;100757.81;5096481;28;20441;-62
2021/04/04 11:59:20;;;;;;;16.92;7.90;;;;;;;8.28;62.87;100765.69;5095958;28;20032;-62
2021/04/04 12:01:57;;;;;;;13.80;6.10;;;;;;;8.28;63.06;100768.25;5095196;28;20043;-62
2021/04/04 12:04:47;;;;;;;16.38;7.15;;;;;;;8.27;63.28;100759.63;5095180;28;20041;-62
2021/04/04 12:07:32;;;;;;;16.30;6.05;;;;;;;8.29;63.04;100754.53;5077861;28;20131;-63
2021/04/04 12:10:10;;;;;;;20.40;8.30;;;;;;;8.29;62.61;100750.22;5078010;28;20132;-64
2021/04/04 12:12:44;;;;;;;13.13;7.45;;;;;;;8.28;62.78;100752.78;5095386;28;20152;-64
2021/04/04 12:15:17;;;;;;;19.00;7.82;;;;;;;8.26;62.78;100757.84;5096484;28;20032;-64
2021/04/04 12:18:00;;;;;;;15.10;8.55;;;;;;;8.25;62.85;100752.66;5078094;28;20044;-64
2021/04/04 12:20:40;;;;;;;15.25;8.77;;;;;;;8.25;63.05;100742.31;5095236;28;20047;-64
2021/04/04 12:23:19;;;;;;;18.65;9.02;;;;;;;8.22;62.69;100741.38;5095724;28;20510;-64
2021/04/04 12:25:50;;;;;;;17.83;8.88;;;;;;;8.22;62.58;100736.22;5095694;28;20517;-64